Time;durP1;ratioP1;P1;durP2;ratioP2;P2;SDS_P1;SDS_P2;PMS_P1;PMS_P2;Temp;Humidity;BMP_temperature;BMP_pressure;BME280_temperature;BME280_humidity;BME280_pressure;Samples;Min_cycle;Max_cycle;Signal;HPM_P1;HPM_P2
2023/09/17 00:01:13;;;;;;;3.17;2.90;;;23.10;93.40;;;;;;4942320;28;20303;-72
2023/09/17 00:03:39;;;;;;;2.67;2.47;;;23.10;93.40;;;;;;4958471;28;20194;-71
2023/09/17 00:06:06;;;;;;;2.97;2.78;;;23.10;93.40;;;;;;4975392;28;20205;-71
2023/09/17 00:08:32;;;;;;;2.90;2.70;;;23.10;93.40;;;;;;4948733;28;20182;-71
2023/09/17 00:10:58;;;;;;;3.08;2.83;;;23.10;93.40;;;;;;4959458;28;20252;-71
2023/09/17 00:13:24;;;;;;;3.25;3.05;;;23.10;93.50;;;;;;4956622;28;20264;-71
2023/09/17 00:15:51;;;;;;;3.63;3.33;;;23.10;93.40;;;;;;4942272;28;20233;-71
2023/09/17 00:18:16;;;;;;;3.00;2.80;;;23.10;93.50;;;;;;4956633;28;20186;-71
2023/09/17 00:20:42;;;;;;;2.65;2.45;;;23.10;93.50;;;;;;4957717;28;20225;-71
2023/09/17 00:23:08;;;;;;;3.10;2.90;;;23.10;93.50;;;;;;4957313;28;20196;-71
2023/09/17 00:25:35;;;;;;;2.92;2.72;;;23.10;93.50;;;;;;4957445;28;20213;-71
2023/09/17 00:28:01;;;;;;;3.00;2.80;;;23.10;93.50;;;;;;4949348;28;20654;-71
2023/09/17 00:30:27;;;;;;;3.17;2.97;;;23.10;93.50;;;;;;4942008;28;20228;-71
2023/09/17 00:32:53;;;;;;;3.00;2.80;;;23.00;93.40;;;;;;4938569;28;20182;-71
2023/09/17 00:35:19;;;;;;;3.28;3.08;;;23.10;93.50;;;;;;4956772;28;20197;-71
2023/09/17 00:37:44;;;;;;;3.03;2.83;;;23.10;93.50;;;;;;4956527;28;20576;-71
2023/09/17 00:40:11;;;;;;;2.90;2.70;;;23.00;93.40;;;;;;4949720;28;20185;-71
2023/09/17 00:42:39;;;;;;;3.05;2.85;;;23.10;93.50;;;;;;4941106;28;20177;-71
2023/09/17 00:45:05;;;;;;;3.13;2.92;;;23.10;93.50;;;;;;4957594;28;20208;-71
2023/09/17 00:47:31;;;;;;;2.95;2.75;;;23.10;93.50;;;;;;4937260;29;20202;-71
2023/09/17 00:50:00;;;;;;;2.70;2.50;;;23.00;93.50;;;;;;4957696;28;20186;-71
2023/09/17 00:52:27;;;;;;;3.22;2.85;;;23.10;93.50;;;;;;4964228;28;20181;-71
2023/09/17 00:54:55;;;;;;;2.67;2.50;;;23.10;93.50;;;;;;4962876;28;20200;-71
2023/09/17 00:57:22;;;;;;;3.15;2.95;;;23.10;93.50;;;;;;4960767;28;20208;-72
2023/09/17 00:59:48;;;;;;;2.90;2.70;;;23.10;93.50;;;;;;4960137;28;20228;-71
2023/09/17 01:02:19;;;;;;;3.17;2.75;;;23.10;93.50;;;;;;4943001;28;20209;-71
2023/09/17 01:04:49;;;;;;;2.97;2.78;;;23.10;93.50;;;;;;4961531;28;20268;-71
2023/09/17 01:07:22;;;;;;;3.03;2.83;;;23.10;93.50;;;;;;4943959;28;20294;-71
2023/09/17 01:09:49;;;;;;;3.00;2.80;;;23.10;93.50;;;;;;4942923;28;20217;-71
2023/09/17 01:12:16;;;;;;;3.15;2.80;;;23.00;93.50;;;;;;4942213;28;20182;-71
2023/09/17 01:14:42;;;;;;;2.97;2.67;;;23.10;93.50;;;;;;4950965;28;20190;-71
2023/09/17 01:17:09;;;;;;;3.05;2.75;;;23.10;93.50;;;;;;4942153;28;20213;-71
2023/09/17 01:19:36;;;;;;;3.15;2.85;;;23.10;93.50;;;;;;4958183;28;20647;-71
2023/09/17 01:22:29;;;;;;;3.88;3.00;;;23.10;93.50;;;;;;4958994;28;20205;-71
2023/09/17 01:25:11;;;;;;;3.20;3.00;;;23.00;93.50;;;;;;4942649;28;20276;-71
2023/09/17 01:27:39;;;;;;;3.13;2.88;;;23.00;93.50;;;;;;4970636;28;20236;-71
2023/09/17 01:30:15;;;;;;;2.83;2.63;;;23.00;93.50;;;;;;4958287;28;20186;-71
2023/09/17 01:32:45;;;;;;;3.45;3.15;;;23.10;93.50;;;;;;4957937;28;20185;-71
2023/09/17 01:35:17;;;;;;;2.65;2.45;;;23.10;93.60;;;;;;4957318;28;20198;-71
2023/09/17 01:37:53;;;;;;;3.58;3.28;;;23.00;93.50;;;;;;4942260;28;20212;-71
2023/09/17 01:40:20;;;;;;;3.70;3.40;;;23.10;93.60;;;;;;4978893;28;20199;-71
2023/09/17 01:42:49;;;;;;;3.00;2.80;;;23.00;93.50;;;;;;4946257;28;20281;-71
2023/09/17 01:45:16;;;;;;;3.50;3.20;;;23.10;93.60;;;;;;4942752;28;20199;-71
2023/09/17 01:47:46;;;;;;;3.33;3.03;;;23.10;93.60;;;;;;4941839;29;20198;-71
2023/09/17 01:50:15;;;;;;;3.20;3.00;;;23.00;93.50;;;;;;4960082;28;20224;-71
2023/09/17 01:52:43;;;;;;;3.10;2.90;;;23.00;93.50;;;;;;4946636;28;20182;-71
2023/09/17 01:55:09;;;;;;;3.10;2.90;;;23.00;93.50;;;;;;4941864;28;20292;-71
2023/09/17 01:57:36;;;;;;;3.05;2.85;;;23.00;93.60;;;;;;4957812;28;20220;-71
2023/09/17 02:00:14;;;;;;;3.53;3.22;;;23.00;93.50;;;;;;4957403;28;20198;-71
2023/09/17 02:02:49;;;;;;;3.20;2.88;;;23.00;93.50;;;;;;4941380;28;20193;-71
2023/09/17 02:05:17;;;;;;;2.92;2.72;;;23.00;93.60;;;;;;4941319;28;20204;-71
2023/09/17 02:07:47;;;;;;;3.50;3.20;;;23.00;93.50;;;;;;4941263;28;20204;-71
2023/09/17 02:10:13;;;;;;;3.47;3.17;;;23.00;93.60;;;;;;4957292;28;20197;-71
2023/09/17 02:12:39;;;;;;;3.20;3.00;;;23.00;93.60;;;;;;4965088;28;20186;-71
2023/09/17 02:15:06;;;;;;;3.60;3.30;;;23.00;93.60;;;;;;4945023;28;20201;-71
2023/09/17 02:17:32;;;;;;;3.65;3.35;;;23.00;93.60;;;;;;4940821;28;20206;-71
2023/09/17 02:19:57;;;;;;;3.50;3.28;;;23.00;93.60;;;;;;4948857;28;20192;-71
2023/09/17 02:22:23;;;;;;;3.25;2.95;;;23.00;93.60;;;;;;4964247;28;20209;-71
2023/09/17 02:24:49;;;;;;;3.35;3.10;;;23.00;93.60;;;;;;4957030;28;20186;-71
2023/09/17 02:27:15;;;;;;;3.67;3.38;;;23.00;93.60;;;;;;4948781;28;20202;-71
2023/09/17 02:29:41;;;;;;;3.40;3.10;;;23.00;93.60;;;;;;4956067;28;20536;-71
2023/09/17 02:32:09;;;;;;;3.25;3.05;;;23.00;93.60;;;;;;4951927;28;20257;-72
2023/09/17 02:34:37;;;;;;;3.65;3.35;;;23.00;93.50;;;;;;4942849;28;20277;-71
2023/09/17 02:37:03;;;;;;;3.10;2.90;;;23.00;93.50;;;;;;4939654;28;20224;-71
2023/09/17 02:39:29;;;;;;;2.90;2.70;;;23.00;93.90;;;;;;4923044;29;20281;-71
2023/09/17 02:41:55;;;;;;;3.50;3.20;;;23.00;93.50;;;;;;4961121;28;20219;-71
2023/09/17 02:44:21;;;;;;;3.00;2.80;;;23.00;93.50;;;;;;4948742;28;20182;-71
2023/09/17 02:46:47;;;;;;;3.58;3.28;;;23.00;93.60;;;;;;4940167;28;20571;-71
2023/09/17 02:49:13;;;;;;;3.50;3.20;;;23.00;93.60;;;;;;4944316;28;20185;-71
2023/09/17 02:51:39;;;;;;;3.00;2.80;;;23.00;93.60;;;;;;4969121;28;20192;-71
2023/09/17 02:54:05;;;;;;;3.38;3.17;;;23.00;93.50;;;;;;4948031;28;20275;-71
2023/09/17 02:56:31;;;;;;;2.88;2.67;;;23.00;93.60;;;;;;4956031;28;20209;-72
2023/09/17 02:58:58;;;;;;;2.90;2.70;;;23.00;93.60;;;;;;4947673;28;20193;-71
2023/09/17 03:01:24;;;;;;;2.88;2.67;;;22.90;93.60;;;;;;4955158;28;20213;-71
2023/09/17 03:03:50;;;;;;;3.22;3.03;;;23.00;93.60;;;;;;4962591;28;20648;-71
2023/09/17 03:06:16;;;;;;;3.05;2.85;;;22.90;93.50;;;;;;4973130;28;20248;-71
2023/09/17 03:08:43;;;;;;;3.25;3.05;;;23.00;93.60;;;;;;4952117;29;20553;-71
2023/09/17 03:11:15;;;;;;;3.20;3.00;;;23.00;93.60;;;;;;4946733;28;20184;-71
2023/09/17 03:13:46;;;;;;;2.95;2.75;;;22.90;93.60;;;;;;4940301;28;20184;-71
2023/09/17 03:16:15;;;;;;;3.15;2.95;;;22.90;93.50;;;;;;4945976;28;20711;-71
2023/09/17 03:18:43;;;;;;;3.38;3.17;;;22.90;93.50;;;;;;4943800;29;20210;-71
2023/09/17 03:21:09;;;;;;;3.20;3.00;;;23.00;93.60;;;;;;4970717;28;20216;-71
2023/09/17 03:23:36;;;;;;;2.85;2.65;;;23.00;93.60;;;;;;4944607;28;20192;-71
2023/09/17 03:26:03;;;;;;;3.03;2.83;;;23.00;93.90;;;;;;4965328;28;20209;-71
2023/09/17 03:28:33;;;;;;;3.67;3.38;;;23.00;93.60;;;;;;4948047;28;20173;-71
2023/09/17 03:31:01;;;;;;;3.08;2.88;;;22.90;93.50;;;;;;4969750;28;20188;-71
2023/09/17 03:33:29;;;;;;;3.47;3.28;;;23.00;93.60;;;;;;4955122;28;20186;-71
2023/09/17 03:35:55;;;;;;;3.10;2.80;;;22.90;93.50;;;;;;4962228;28;20304;-71
2023/09/17 03:38:22;;;;;;;3.13;2.92;;;22.90;93.50;;;;;;4952776;28;20221;-71
2023/09/17 03:40:48;;;;;;;3.33;3.03;;;22.90;93.50;;;;;;4946682;28;20206;-71
2023/09/17 03:43:14;;;;;;;3.20;3.00;;;22.90;93.50;;;;;;4962494;28;20181;-70
2023/09/17 03:45:41;;;;;;;3.05;2.85;;;22.90;93.50;;;;;;4960067;28;20176;-71
2023/09/17 03:48:07;;;;;;;3.38;3.17;;;22.90;93.60;;;;;;4941289;28;20276;-70
2023/09/17 03:50:39;;;;;;;2.83;2.63;;;22.90;93.50;;;;;;4966278;28;20177;-71
2023/09/17 03:53:06;;;;;;;2.95;2.75;;;22.90;93.50;;;;;;4947687;28;20217;-71
2023/09/17 03:55:34;;;;;;;3.28;3.08;;;22.90;93.50;;;;;;4964467;28;20187;-71
2023/09/17 03:58:01;;;;;;;3.30;3.10;;;22.90;93.50;;;;;;4964737;28;20181;-71
2023/09/17 04:00:33;;;;;;;3.53;3.22;;;22.90;93.50;;;;;;4932747;28;20251;-71
2023/09/17 04:03:00;;;;;;;3.20;3.00;;;22.90;93.60;;;;;;4961820;28;20209;-71
2023/09/17 04:05:26;;;;;;;3.45;3.20;;;22.90;93.50;;;;;;4956297;28;20178;-71
2023/09/17 04:07:51;;;;;;;3.15;2.85;;;22.90;93.60;;;;;;4965271;28;20229;-71
2023/09/17 04:10:19;;;;;;;2.90;2.70;;;22.90;93.50;;;;;;4962323;28;20268;-71
2023/09/17 04:12:45;;;;;;;2.90;2.70;;;22.90;93.50;;;;;;4955392;28;20564;-71
2023/09/17 04:15:19;;;;;;;3.05;2.85;;;22.90;93.60;;;;;;4968118;28;20192;-71
2023/09/17 04:17:48;;;;;;;3.25;3.05;;;22.90;93.50;;;;;;4950662;28;20263;-71
2023/09/17 04:20:18;;;;;;;2.63;2.42;;;22.90;93.50;;;;;;4947419;28;20592;-72
2023/09/17 04:22:49;;;;;;;3.13;2.92;;;22.90;93.50;;;;;;4968231;28;20192;-72
2023/09/17 04:25:17;;;;;;;3.03;2.80;;;22.90;93.50;;;;;;4962285;28;20218;-71
2023/09/17 04:27:43;;;;;;;3.20;3.00;;;22.90;93.60;;;;;;4952019;28;20227;-71
2023/09/17 04:30:13;;;;;;;3.00;2.80;;;22.90;93.60;;;;;;4947713;28;20271;-71
2023/09/17 04:32:42;;;;;;;3.00;2.80;;;22.90;93.60;;;;;;4946839;29;20190;-71
2023/09/17 04:35:10;;;;;;;3.00;2.80;;;22.90;93.60;;;;;;4960296;28;20191;-71
2023/09/17 04:37:40;;;;;;;3.08;2.88;;;22.90;93.60;;;;;;4964967;28;20235;-71
2023/09/17 04:40:08;;;;;;;3.17;2.97;;;22.90;93.60;;;;;;4971037;28;20184;-71
2023/09/17 04:42:37;;;;;;;3.05;2.85;;;22.90;93.60;;;;;;4962621;28;20227;-71
2023/09/17 04:45:08;;;;;;;3.20;3.00;;;22.90;93.60;;;;;;4966787;28;20181;-71
2023/09/17 04:47:36;;;;;;;2.70;2.50;;;22.90;93.60;;;;;;4974112;28;20201;-71
2023/09/17 04:50:07;;;;;;;3.28;3.08;;;22.90;93.60;;;;;;4946686;28;20567;-71
2023/09/17 04:52:35;;;;;;;2.83;2.63;;;22.90;93.50;;;;;;4970789;28;20178;-71
2023/09/17 04:55:01;;;;;;;2.72;2.53;;;22.90;93.50;;;;;;4958071;28;20205;-72
2023/09/17 04:57:27;;;;;;;3.22;3.03;;;22.90;93.60;;;;;;4976552;28;20217;-71
2023/09/17 04:59:52;;;;;;;2.90;2.70;;;22.90;93.60;;;;;;4951733;28;20205;-71
2023/09/17 05:02:18;;;;;;;2.90;2.70;;;22.90;93.60;;;;;;4953481;28;20268;-71
2023/09/17 05:04:44;;;;;;;3.30;3.00;;;22.90;93.60;;;;;;4981084;28;20178;-71
2023/09/17 05:07:11;;;;;;;2.88;2.67;;;22.90;93.60;;;;;;4942072;28;20210;-71
2023/09/17 05:09:37;;;;;;;3.08;2.88;;;22.90;93.60;;;;;;4958554;28;20236;-71
2023/09/17 05:12:05;;;;;;;2.97;2.78;;;22.90;93.60;;;;;;4963682;28;20193;-71
2023/09/17 05:14:31;;;;;;;2.85;2.65;;;22.90;93.60;;;;;;4950290;28;20189;-71
2023/09/17 05:16:57;;;;;;;3.08;2.88;;;22.90;93.60;;;;;;4945307;28;20220;-71
2023/09/17 05:19:23;;;;;;;3.00;2.80;;;22.90;93.60;;;;;;4988847;28;20193;-71
2023/09/17 05:21:49;;;;;;;3.05;2.85;;;22.90;93.60;;;;;;4946855;28;20232;-71
2023/09/17 05:24:16;;;;;;;2.90;2.70;;;22.90;93.60;;;;;;4948546;28;20187;-72
2023/09/17 05:26:42;;;;;;;3.03;2.83;;;22.90;93.60;;;;;;4952389;28;20208;-71
2023/09/17 05:29:10;;;;;;;3.28;2.97;;;22.90;93.60;;;;;;4969053;28;20648;-71
2023/09/17 05:31:37;;;;;;;3.40;3.10;;;22.90;93.60;;;;;;4968991;28;20196;-71
2023/09/17 05:34:03;;;;;;;3.17;2.97;;;22.80;93.60;;;;;;4988362;28;20189;-71
2023/09/17 05:36:30;;;;;;;3.30;3.10;;;22.90;93.60;;;;;;4946804;28;20623;-71
2023/09/17 05:38:57;;;;;;;3.60;3.30;;;22.90;93.60;;;;;;4962161;28;20190;-71
2023/09/17 05:41:23;;;;;;;2.90;2.70;;;22.90;93.60;;;;;;4952055;28;20243;-71
2023/09/17 05:43:49;;;;;;;2.70;2.50;;;22.80;93.60;;;;;;4946040;28;20205;-71
2023/09/17 05:46:15;;;;;;;3.35;3.10;;;22.90;93.60;;;;;;4955473;28;20208;-71
2023/09/17 05:48:42;;;;;;;2.80;2.60;;;22.90;93.60;;;;;;4941794;28;20237;-71
2023/09/17 05:51:08;;;;;;;3.05;2.85;;;22.90;93.80;;;;;;4941465;28;20189;-71
2023/09/17 05:53:35;;;;;;;3.05;2.85;;;22.90;93.70;;;;;;4951541;28;20201;-71
2023/09/17 05:56:04;;;;;;;2.75;2.55;;;22.80;93.60;;;;;;4941002;28;20351;-71
2023/09/17 05:58:30;;;;;;;3.35;3.03;;;22.90;93.60;;;;;;4964136;28;20276;-71
2023/09/17 06:00:57;;;;;;;3.00;2.80;;;22.90;93.70;;;;;;4946021;28;20214;-71
2023/09/17 06:03:23;;;;;;;3.30;3.03;;;22.90;93.60;;;;;;4982124;28;20181;-71
2023/09/17 06:05:49;;;;;;;3.28;2.97;;;22.80;93.60;;;;;;4957240;28;20276;-71
2023/09/17 06:08:15;;;;;;;3.00;2.80;;;22.80;93.60;;;;;;4951340;28;20216;-71
2023/09/17 06:10:41;;;;;;;3.30;3.03;;;22.80;93.60;;;;;;4944202;28;20216;-71
2023/09/17 06:13:07;;;;;;;3.28;3.00;;;22.90;93.70;;;;;;4968614;28;20193;-71
2023/09/17 06:15:33;;;;;;;2.97;2.70;;;22.90;93.70;;;;;;4945859;28;20205;-71
2023/09/17 06:17:59;;;;;;;3.33;3.10;;;22.90;93.70;;;;;;4961631;28;20216;-71
2023/09/17 06:20:25;;;;;;;3.10;2.90;;;22.80;93.70;;;;;;4941868;28;20199;-72
2023/09/17 06:22:50;;;;;;;2.95;2.67;;;22.80;93.70;;;;;;4969854;28;20181;-71
2023/09/17 06:25:16;;;;;;;3.17;2.97;;;22.80;93.70;;;;;;4963787;28;20201;-70
2023/09/17 06:27:43;;;;;;;3.10;2.90;;;22.90;93.70;;;;;;4956651;28;20220;-71
2023/09/17 06:30:09;;;;;;;3.10;2.90;;;22.80;93.70;;;;;;4944336;28;20612;-71
2023/09/17 06:32:35;;;;;;;3.00;2.80;;;22.90;93.70;;;;;;4958512;28;20189;-71
2023/09/17 06:35:02;;;;;;;3.20;3.00;;;22.90;93.70;;;;;;4951154;28;20195;-71
2023/09/17 06:37:28;;;;;;;2.92;2.72;;;22.90;93.70;;;;;;4966452;28;20229;-71
2023/09/17 06:39:54;;;;;;;2.97;2.67;;;22.90;93.70;;;;;;4960138;28;20269;-72
2023/09/17 06:42:20;;;;;;;2.97;2.78;;;22.90;93.70;;;;;;4977304;28;20217;-71
2023/09/17 06:44:46;;;;;;;3.00;2.80;;;22.90;93.70;;;;;;4959167;28;20181;-71
2023/09/17 06:47:13;;;;;;;3.35;3.05;;;22.90;93.70;;;;;;4939416;28;20213;-71
2023/09/17 06:49:38;;;;;;;3.55;3.25;;;22.90;93.70;;;;;;4965443;28;20612;-71
2023/09/17 06:52:04;;;;;;;3.22;3.03;;;22.90;93.70;;;;;;4977825;28;20181;-71
2023/09/17 06:54:30;;;;;;;3.13;2.92;;;22.90;93.70;;;;;;4944644;28;20189;-71
2023/09/17 06:56:55;;;;;;;3.03;2.83;;;22.90;93.70;;;;;;4964096;28;20342;-70
2023/09/17 06:59:21;;;;;;;3.17;2.90;;;22.90;93.70;;;;;;4937759;29;20194;-71
2023/09/17 07:01:47;;;;;;;2.95;2.75;;;22.90;93.70;;;;;;4959954;28;20216;-71
2023/09/17 07:04:13;;;;;;;3.00;2.80;;;22.90;93.70;;;;;;4964641;28;20188;-72
2023/09/17 07:06:39;;;;;;;2.90;2.70;;;22.90;93.70;;;;;;4957088;28;20209;-71
2023/09/17 07:09:05;;;;;;;2.70;2.50;;;22.90;93.70;;;;;;4955867;28;20198;-71
2023/09/17 07:11:30;;;;;;;2.70;2.50;;;22.90;93.70;;;;;;4955396;28;20194;-72
2023/09/17 07:13:57;;;;;;;3.13;2.92;;;22.90;93.70;;;;;;4942265;28;20189;-71
2023/09/17 07:16:24;;;;;;;3.53;3.22;;;22.90;93.80;;;;;;4959602;28;20211;-72
2023/09/17 07:18:50;;;;;;;3.22;3.03;;;22.90;93.70;;;;;;4954700;28;20222;-71
2023/09/17 07:21:16;;;;;;;2.95;2.75;;;22.90;93.70;;;;;;4935199;28;20708;-69
2023/09/17 07:23:42;;;;;;;2.95;2.75;;;22.90;93.80;;;;;;4943933;28;20190;-71
2023/09/17 07:26:09;;;;;;;2.90;2.70;;;22.90;93.80;;;;;;4960981;28;20213;-71
2023/09/17 07:28:36;;;;;;;3.10;2.90;;;22.90;93.80;;;;;;4965052;28;20256;-71
2023/09/17 07:31:02;;;;;;;3.45;3.05;;;22.90;93.80;;;;;;4964051;28;20197;-71
2023/09/17 07:33:27;;;;;;;3.15;2.95;;;22.90;93.80;;;;;;4959115;28;20198;-72
2023/09/17 07:35:53;;;;;;;3.22;2.97;;;22.90;93.70;;;;;;4950317;28;20216;-71
2023/09/17 07:38:19;;;;;;;3.25;3.00;;;23.00;93.80;;;;;;4943764;28;20192;-70
2023/09/17 07:40:45;;;;;;;3.00;2.80;;;23.00;93.70;;;;;;4957693;28;20193;-71
2023/09/17 07:43:11;;;;;;;2.78;2.58;;;23.00;93.70;;;;;;4960962;28;20205;-71
2023/09/17 07:45:37;;;;;;;3.78;3.13;;;23.00;93.80;;;;;;4943022;28;20262;-71
2023/09/17 07:48:03;;;;;;;3.25;3.00;;;23.00;93.70;;;;;;4947270;28;20762;-72
2023/09/17 07:50:29;;;;;;;3.13;2.92;;;23.00;93.70;;;;;;4962566;28;20204;-72
2023/09/17 07:52:55;;;;;;;3.13;2.92;;;23.00;93.70;;;;;;4947058;28;20222;-71
2023/09/17 07:55:20;;;;;;;3.30;3.10;;;23.00;93.70;;;;;;4946761;28;20177;-69
2023/09/17 07:57:46;;;;;;;4.00;3.35;;;23.10;93.70;;;;;;4939393;28;20276;-70
2023/09/17 08:00:16;;;;;;;3.13;2.92;;;23.10;93.70;;;;;;4955272;28;20205;-71
2023/09/17 08:02:45;;;;;;;2.80;2.60;;;23.10;93.60;;;;;;4967460;28;20267;-71
2023/09/17 08:05:13;;;;;;;3.25;3.05;;;23.10;93.60;;;;;;4947990;28;20220;-71
2023/09/17 08:07:42;;;;;;;3.63;3.10;;;23.10;93.60;;;;;;4966177;28;20218;-71
2023/09/17 08:10:08;;;;;;;3.70;3.47;;;23.10;93.70;;;;;;4959299;28;20228;-71
2023/09/17 08:12:34;;;;;;;3.30;3.10;;;23.10;93.70;;;;;;4983433;28;20189;-71
2023/09/17 08:15:00;;;;;;;3.17;2.97;;;23.10;93.80;;;;;;4942844;28;20554;-71
2023/09/17 08:17:27;;;;;;;2.97;2.78;;;23.10;93.80;;;;;;4965542;28;20209;-71
2023/09/17 08:19:54;;;;;;;3.50;3.20;;;23.10;93.90;;;;;;4962041;28;20189;-71
2023/09/17 08:22:21;;;;;;;3.15;2.95;;;23.10;93.90;;;;;;4943239;28;20214;-70
2023/09/17 08:24:47;;;;;;;3.70;3.10;;;23.10;93.90;;;;;;4982794;28;20194;-71
2023/09/17 08:27:15;;;;;;;3.38;3.08;;;23.10;93.90;;;;;;4964654;28;20212;-71
2023/09/17 08:29:41;;;;;;;3.17;2.97;;;23.10;93.90;;;;;;4961391;28;20197;-71
2023/09/17 08:32:07;;;;;;;3.33;3.00;;;23.10;93.90;;;;;;4941482;29;20279;-71
2023/09/17 08:34:33;;;;;;;3.00;2.70;;;23.10;93.90;;;;;;4955456;28;20200;-71
2023/09/17 08:36:59;;;;;;;3.45;3.10;;;23.10;93.90;;;;;;4944195;28;20218;-69
2023/09/17 08:39:25;;;;;;;2.88;2.67;;;23.10;94.00;;;;;;4960184;28;20272;-71
2023/09/17 08:41:52;;;;;;;2.97;2.78;;;23.10;94.10;;;;;;4962168;28;20595;-71
2023/09/17 08:44:18;;;;;;;3.10;2.80;;;23.10;94.10;;;;;;4979477;28;20276;-71
2023/09/17 08:46:45;;;;;;;3.90;3.00;;;23.10;94.10;;;;;;4943931;28;20217;-72
2023/09/17 08:49:11;;;;;;;3.58;3.33;;;23.10;94.10;;;;;;4962843;28;20708;-71
2023/09/17 08:51:41;;;;;;;3.72;3.00;;;23.10;94.10;;;;;;4959222;28;20285;-71
2023/09/17 08:54:15;;;;;;;4.10;3.28;;;23.10;94.10;;;;;;4947314;28;20185;-72
2023/09/17 08:56:44;;;;;;;3.47;3.20;;;23.10;94.10;;;;;;4946099;28;20582;-71
2023/09/17 08:59:19;;;;;;;3.17;2.92;;;23.10;94.10;;;;;;4944254;28;20230;-71
2023/09/17 09:01:48;;;;;;;3.35;3.10;;;23.10;94.10;;;;;;4960555;28;20232;-71
2023/09/17 09:04:15;;;;;;;3.45;3.10;;;23.10;94.10;;;;;;4945966;28;20217;-71
2023/09/17 09:06:44;;;;;;;3.08;2.72;;;23.10;94.10;;;;;;4952156;28;20690;-71
2023/09/17 09:09:10;;;;;;;3.50;2.80;;;23.10;94.10;;;;;;4944550;28;20184;-71
2023/09/17 09:11:37;;;;;;;3.42;3.13;;;23.10;94.10;;;;;;4960543;28;20216;-72
2023/09/17 09:14:04;;;;;;;3.60;3.30;;;23.10;94.10;;;;;;4957113;28;20196;-72
2023/09/17 09:16:33;;;;;;;3.47;2.95;;;23.10;94.10;;;;;;4947027;28;20324;-68
2023/09/17 09:19:00;;;;;;;3.33;2.78;;;23.10;94.20;;;;;;4944781;28;20185;-72
2023/09/17 09:21:28;;;;;;;3.15;2.83;;;23.10;94.10;;;;;;4942362;28;20260;-72
2023/09/17 09:23:58;;;;;;;3.83;3.05;;;23.10;94.10;;;;;;4950170;28;20185;-72
2023/09/17 09:26:38;;;;;;;4.32;3.05;;;23.10;94.10;;;;;;4952906;28;20217;-72
2023/09/17 09:29:06;;;;;;;3.30;2.90;;;23.10;94.40;;;;;;4976379;28;20184;-72
2023/09/17 09:31:34;;;;;;;3.30;3.00;;;23.10;94.10;;;;;;4979155;28;20217;-71
2023/09/17 09:34:02;;;;;;;3.65;2.83;;;23.10;94.10;;;;;;4968374;28;20192;-71
2023/09/17 09:36:32;;;;;;;2.67;2.45;;;23.20;94.20;;;;;;4959820;28;20697;-71
2023/09/17 09:38:59;;;;;;;3.33;2.80;;;23.10;94.10;;;;;;4975030;28;20201;-72
2023/09/17 09:41:26;;;;;;;4.38;2.72;;;23.10;94.10;;;;;;4957861;28;20208;-71
2023/09/17 09:43:56;;;;;;;4.55;3.00;;;23.10;94.10;;;;;;4946315;28;20232;-71
2023/09/17 09:46:28;;;;;;;4.53;3.08;;;23.20;94.20;;;;;;4956588;28;20245;-71
2023/09/17 09:49:02;;;;;;;3.38;3.03;;;23.10;94.10;;;;;;4943569;28;20188;-72
2023/09/17 09:51:35;;;;;;;3.03;2.70;;;23.20;94.20;;;;;;4972478;28;20189;-71
2023/09/17 09:54:03;;;;;;;4.90;3.25;;;23.10;94.10;;;;;;4941219;28;20189;-71
2023/09/17 09:56:30;;;;;;;5.00;3.25;;;23.10;94.30;;;;;;4959512;28;20728;-72
2023/09/17 09:58:58;;;;;;;3.63;2.53;;;23.10;94.10;;;;;;4969490;28;20189;-71
2023/09/17 10:01:25;;;;;;;4.43;3.10;;;23.20;94.20;;;;;;4973373;28;20213;-71
2023/09/17 10:03:56;;;;;;;3.10;2.80;;;23.10;94.10;;;;;;4944831;28;20185;-70
2023/09/17 10:06:23;;;;;;;3.50;2.70;;;23.10;94.10;;;;;;4972800;28;20225;-72
2023/09/17 10:08:52;;;;;;;3.00;2.78;;;23.20;94.20;;;;;;4958180;28;20273;-72
2023/09/17 10:11:19;;;;;;;3.75;3.00;;;23.20;94.20;;;;;;4981757;28;20204;-72
2023/09/17 10:13:45;;;;;;;3.85;2.63;;;23.10;94.10;;;;;;4942995;28;20192;-71
2023/09/17 10:16:12;;;;;;;3.63;2.60;;;23.20;94.20;;;;;;4976009;28;20219;-71
2023/09/17 10:18:42;;;;;;;4.70;2.65;;;23.20;94.20;;;;;;4957152;28;20181;-71
2023/09/17 10:21:09;;;;;;;6.20;2.90;;;23.20;94.20;;;;;;4961131;28;20209;-72
2023/09/17 10:23:36;;;;;;;3.63;2.92;;;23.20;94.20;;;;;;4950579;28;20240;-72
2023/09/17 10:26:03;;;;;;;2.78;2.30;;;23.20;94.20;;;;;;4974090;28;20297;-71
2023/09/17 10:28:34;;;;;;;5.63;3.13;;;23.20;94.20;;;;;;4965307;28;20181;-71
2023/09/17 10:31:01;;;;;;;3.05;2.75;;;23.20;94.20;;;;;;4941892;28;20190;-72
2023/09/17 10:33:31;;;;;;;4.10;2.70;;;23.20;94.20;;;;;;4942894;28;20268;-71
2023/09/17 10:35:59;;;;;;;3.72;2.78;;;23.20;94.20;;;;;;4959806;28;20259;-72
2023/09/17 10:38:27;;;;;;;5.47;2.67;;;23.20;94.20;;;;;;4942676;28;20651;-72
2023/09/17 10:40:56;;;;;;;4.43;2.70;;;23.20;94.20;;;;;;4957536;28;20216;-73
2023/09/17 10:43:24;;;;;;;3.63;2.33;;;23.20;94.30;;;;;;4951025;28;20193;-72
2023/09/17 10:45:55;;;;;;;4.35;2.65;;;23.20;94.40;;;;;;4956224;28;20205;-71
2023/09/17 10:48:24;;;;;;;2.72;2.47;;;23.30;94.40;;;;;;4945259;29;20183;-71
2023/09/17 10:50:50;;;;;;;3.03;2.63;;;23.20;94.20;;;;;;4956944;28;20182;-72
2023/09/17 10:53:16;;;;;;;3.15;2.58;;;23.20;94.20;;;;;;4955908;28;20181;-71
2023/09/17 10:55:52;;;;;;;4.22;2.42;;;23.20;94.20;;;;;;4940299;28;20704;-71
2023/09/17 10:58:28;;;;;;;4.18;2.40;;;23.30;94.20;;;;;;4956025;28;20197;-71
2023/09/17 11:00:57;;;;;;;2.63;2.42;;;23.30;94.20;;;;;;4956154;28;20193;-72
2023/09/17 11:03:26;;;;;;;2.55;2.35;;;23.30;94.20;;;;;;4934151;28;20189;-72
2023/09/17 11:05:55;;;;;;;3.17;2.42;;;23.30;94.20;;;;;;4939845;28;20182;-72
2023/09/17 11:08:21;;;;;;;2.40;2.20;;;23.30;94.20;;;;;;4957451;28;20193;-71
2023/09/17 11:10:47;;;;;;;3.60;2.63;;;23.30;94.20;;;;;;4956586;28;20186;-71
2023/09/17 11:13:14;;;;;;;2.85;2.25;;;23.30;94.20;;;;;;4956073;28;20206;-71
2023/09/17 11:15:42;;;;;;;4.22;2.55;;;23.30;94.20;;;;;;4940030;28;20189;-71
2023/09/17 11:18:10;;;;;;;4.03;2.60;;;23.30;94.20;;;;;;4941004;28;20217;-71
2023/09/17 11:21:06;;;;;;;2.67;2.13;;;23.30;94.30;;;;;;4955110;28;20189;-71
2023/09/17 11:23:46;;;;;;;2.78;2.22;;;23.30;94.30;;;;;;4953626;28;20209;-71
2023/09/17 11:26:15;;;;;;;2.70;2.50;;;23.30;94.20;;;;;;4955412;28;20236;-71
2023/09/17 11:28:41;;;;;;;3.80;2.35;;;23.30;94.20;;;;;;4956918;28;20264;-72
2023/09/17 11:31:14;;;;;;;3.70;2.47;;;23.30;94.20;;;;;;4973513;28;20281;-72
2023/09/17 11:33:43;;;;;;;2.58;2.38;;;23.30;94.20;;;;;;4941511;28;20224;-70
2023/09/17 11:36:09;;;;;;;3.10;2.80;;;23.30;94.20;;;;;;4955781;28;20256;-72
2023/09/17 11:38:35;;;;;;;2.95;2.28;;;23.30;94.20;;;;;;4939672;28;20189;-71
2023/09/17 11:41:05;;;;;;;2.97;2.38;;;23.30;94.20;;;;;;4973625;28;20217;-71
2023/09/17 11:43:42;;;;;;;3.65;2.72;;;23.30;94.20;;;;;;4944127;28;20188;-73
2023/09/17 11:46:10;;;;;;;4.88;2.67;;;23.30;94.20;;;;;;4939937;28;20209;-71
2023/09/17 11:48:37;;;;;;;3.67;2.30;;;23.30;94.30;;;;;;4972599;28;20228;-72
2023/09/17 11:51:28;;;;;;;5.18;2.50;;;23.30;94.20;;;;;;4980555;28;20276;-72
2023/09/17 11:54:00;;;;;;;3.63;2.38;;;23.30;94.40;;;;;;4949669;28;20190;-72
2023/09/17 11:56:29;;;;;;;3.17;2.33;;;23.40;94.30;;;;;;4933879;28;20309;-71
2023/09/17 11:59:10;;;;;;;3.17;2.50;;;23.30;94.20;;;;;;4939483;28;20177;-71
2023/09/17 12:01:42;;;;;;;3.03;2.15;;;23.30;94.20;;;;;;4950118;28;20206;-71
2023/09/17 12:04:10;;;;;;;2.30;2.10;;;23.30;94.20;;;;;;4956585;28;20189;-71
2023/09/17 12:06:39;;;;;;;3.05;2.45;;;23.30;94.20;;;;;;4956312;28;20217;-71
2023/09/17 12:09:15;;;;;;;2.50;2.30;;;23.40;94.30;;;;;;4956825;28;20194;-72
2023/09/17 12:11:47;;;;;;;2.38;2.22;;;23.40;94.30;;;;;;4955318;28;20648;-71
2023/09/17 12:14:14;;;;;;;2.92;2.60;;;23.40;94.30;;;;;;4975270;28;20201;-73
2023/09/17 12:16:40;;;;;;;2.95;2.30;;;23.30;94.50;;;;;;4960874;28;20219;-71
2023/09/17 12:19:07;;;;;;;2.75;2.40;;;23.40;94.30;;;;;;4955776;28;20275;-71
2023/09/17 12:21:40;;;;;;;2.63;2.42;;;23.40;94.30;;;;;;4955784;28;20202;-71
2023/09/17 12:24:10;;;;;;;2.42;2.22;;;23.40;94.30;;;;;;4955746;28;20276;-71
2023/09/17 12:29:37;;;;;;;3.00;2.38;;;23.40;94.20;;;;;;4949688;28;20217;-72
2023/09/17 12:32:04;;;;;;;3.80;2.72;;;23.40;94.30;;;;;;4939784;28;20663;-72
2023/09/17 12:34:33;;;;;;;3.22;2.17;;;23.40;94.20;;;;;;4955806;28;20260;-71
2023/09/17 12:36:58;;;;;;;2.22;2.03;;;23.40;94.20;;;;;;4963179;28;20349;-71
2023/09/17 12:39:24;;;;;;;2.85;2.60;;;23.40;94.30;;;;;;4943414;28;20181;-71
2023/09/17 12:41:50;;;;;;;3.45;2.13;;;23.50;94.30;;;;;;4956378;28;20591;-71
2023/09/17 12:44:17;;;;;;;2.55;2.35;;;23.50;94.10;;;;;;4951177;28;20248;-71
2023/09/17 12:46:43;;;;;;;2.85;2.40;;;23.40;94.00;;;;;;4980731;28;20252;-70
2023/09/17 12:49:10;;;;;;;2.30;2.10;;;23.40;94.20;;;;;;4958895;28;20272;-71
2023/09/17 12:51:37;;;;;;;3.40;2.40;;;23.40;94.30;;;;;;4971911;28;20189;-71
2023/09/17 12:54:08;;;;;;;4.43;2.30;;;23.40;94.30;;;;;;4976835;28;20185;-71